sensor_id;sensor_type;location;lat;lon;timestamp;P1;durP1;ratioP1;P2;durP2;ratioP2
20078;SDS011;10199;48.850;8.924;2022-09-30T00:01:11;15.20;;;11.00;;
20078;SDS011;10199;48.850;8.924;2022-09-30T00:03:40;15.50;;;10.37;;
20078;SDS011;10199;48.850;8.924;2022-09-30T00:06:08;12.40;;;9.77;;
20078;SDS011;10199;48.850;8.924;2022-09-30T00:08:36;11.83;;;9.40;;
20078;SDS011;10199;48.850;8.924;2022-09-30T00:11:05;13.97;;;9.27;;
20078;SDS011;10199;48.850;8.924;2022-09-30T00:13:35;12.70;;;9.77;;
20078;SDS011;10199;48.850;8.924;2022-09-30T00:16:07;13.50;;;9.40;;
20078;SDS011;10199;48.850;8.924;2022-09-30T00:18:36;12.87;;;9.50;;
20078;SDS011;10199;48.850;8.924;2022-09-30T00:21:06;10.60;;;9.43;;
20078;SDS011;10199;48.850;8.924;2022-09-30T00:23:34;16.10;;;11.77;;
20078;SDS011;10199;48.850;8.924;2022-09-30T00:26:05;15.37;;;11.40;;
20078;SDS011;10199;48.850;8.924;2022-09-30T00:28:34;14.90;;;10.73;;
20078;SDS011;10199;48.850;8.924;2022-09-30T00:31:03;14.57;;;10.40;;
20078;SDS011;10199;48.850;8.924;2022-09-30T00:33:33;13.40;;;10.30;;
20078;SDS011;10199;48.850;8.924;2022-09-30T00:36:01;13.03;;;9.90;;
20078;SDS011;10199;48.850;8.924;2022-09-30T00:38:31;11.87;;;9.50;;
20078;SDS011;10199;48.850;8.924;2022-09-30T00:41:00;11.73;;;9.07;;
20078;SDS011;10199;48.850;8.924;2022-09-30T00:43:39;11.83;;;10.20;;
20078;SDS011;10199;48.850;8.924;2022-09-30T00:46:13;11.00;;;8.93;;
20078;SDS011;10199;48.850;8.924;2022-09-30T00:48:46;12.20;;;9.17;;
20078;SDS011;10199;48.850;8.924;2022-09-30T00:51:20;19.27;;;12.00;;
20078;SDS011;10199;48.850;8.924;2022-09-30T00:53:55;11.10;;;8.27;;
20078;SDS011;10199;48.850;8.924;2022-09-30T00:56:27;11.00;;;7.30;;
20078;SDS011;10199;48.850;8.924;2022-09-30T00:58:59;9.37;;;7.33;;
20078;SDS011;10199;48.850;8.924;2022-09-30T01:01:30;10.70;;;7.97;;
20078;SDS011;10199;48.850;8.924;2022-09-30T01:03:59;12.17;;;8.90;;
20078;SDS011;10199;48.850;8.924;2022-09-30T01:06:32;12.70;;;9.33;;
20078;SDS011;10199;48.850;8.924;2022-09-30T01:09:01;11.70;;;8.67;;
20078;SDS011;10199;48.850;8.924;2022-09-30T01:11:30;10.17;;;8.60;;
20078;SDS011;10199;48.850;8.924;2022-09-30T01:14:00;12.27;;;8.77;;
20078;SDS011;10199;48.850;8.924;2022-09-30T01:16:34;13.00;;;8.20;;
20078;SDS011;10199;48.850;8.924;2022-09-30T01:19:18;11.43;;;8.43;;
20078;SDS011;10199;48.850;8.924;2022-09-30T01:22:03;8.90;;;7.37;;
20078;SDS011;10199;48.850;8.924;2022-09-30T01:28:06;11.13;;;8.10;;
20078;SDS011;10199;48.850;8.924;2022-09-30T01:30:55;10.00;;;8.10;;
20078;SDS011;10199;48.850;8.924;2022-09-30T01:33:36;10.17;;;8.10;;
20078;SDS011;10199;48.850;8.924;2022-09-30T01:36:18;10.97;;;8.07;;
20078;SDS011;10199;48.850;8.924;2022-09-30T01:38:56;10.47;;;7.90;;
20078;SDS011;10199;48.850;8.924;2022-09-30T01:41:35;13.17;;;7.40;;
20078;SDS011;10199;48.850;8.924;2022-09-30T01:44:12;7.63;;;6.80;;
20078;SDS011;10199;48.850;8.924;2022-09-30T01:46:47;7.70;;;6.73;;
20078;SDS011;10199;48.850;8.924;2022-09-30T01:49:23;8.90;;;7.27;;
20078;SDS011;10199;48.850;8.924;2022-09-30T01:51:58;10.20;;;7.20;;
20078;SDS011;10199;48.850;8.924;2022-09-30T01:54:32;11.40;;;7.37;;
20078;SDS011;10199;48.850;8.924;2022-09-30T01:57:06;8.57;;;7.63;;
20078;SDS011;10199;48.850;8.924;2022-09-30T01:59:40;10.73;;;7.10;;
20078;SDS011;10199;48.850;8.924;2022-09-30T02:02:14;11.07;;;7.50;;
20078;SDS011;10199;48.850;8.924;2022-09-30T02:04:46;11.13;;;7.40;;
20078;SDS011;10199;48.850;8.924;2022-09-30T02:07:20;10.53;;;7.60;;
20078;SDS011;10199;48.850;8.924;2022-09-30T02:09:52;10.43;;;7.57;;
20078;SDS011;10199;48.850;8.924;2022-09-30T02:12:25;8.73;;;7.33;;
20078;SDS011;10199;48.850;8.924;2022-09-30T02:14:56;8.17;;;6.83;;
20078;SDS011;10199;48.850;8.924;2022-09-30T02:17:29;9.40;;;7.73;;
20078;SDS011;10199;48.850;8.924;2022-09-30T02:20:01;10.97;;;7.90;;
20078;SDS011;10199;48.850;8.924;2022-09-30T02:22:34;11.80;;;7.47;;
20078;SDS011;10199;48.850;8.924;2022-09-30T02:25:11;9.10;;;6.77;;
20078;SDS011;10199;48.850;8.924;2022-09-30T02:27:46;9.13;;;7.10;;
20078;SDS011;10199;48.850;8.924;2022-09-30T02:30:20;10.07;;;7.30;;
20078;SDS011;10199;48.850;8.924;2022-09-30T02:32:51;10.87;;;8.20;;
20078;SDS011;10199;48.850;8.924;2022-09-30T02:35:23;10.97;;;8.17;;
20078;SDS011;10199;48.850;8.924;2022-09-30T02:37:56;12.00;;;8.77;;
20078;SDS011;10199;48.850;8.924;2022-09-30T02:40:30;10.93;;;8.23;;
20078;SDS011;10199;48.850;8.924;2022-09-30T02:43:04;11.23;;;9.20;;
20078;SDS011;10199;48.850;8.924;2022-09-30T02:45:37;12.50;;;7.83;;
20078;SDS011;10199;48.850;8.924;2022-09-30T02:48:16;10.63;;;8.03;;
20078;SDS011;10199;48.850;8.924;2022-09-30T02:50:53;10.87;;;8.60;;
20078;SDS011;10199;48.850;8.924;2022-09-30T02:53:30;10.50;;;8.10;;
20078;SDS011;10199;48.850;8.924;2022-09-30T02:56:16;9.87;;;8.63;;
20078;SDS011;10199;48.850;8.924;2022-09-30T02:58:49;12.40;;;9.23;;
20078;SDS011;10199;48.850;8.924;2022-09-30T03:01:19;12.67;;;8.67;;
20078;SDS011;10199;48.850;8.924;2022-09-30T03:03:48;10.60;;;8.73;;
20078;SDS011;10199;48.850;8.924;2022-09-30T03:06:18;11.27;;;7.23;;
20078;SDS011;10199;48.850;8.924;2022-09-30T03:08:46;11.47;;;8.83;;
20078;SDS011;10199;48.850;8.924;2022-09-30T03:11:16;11.60;;;8.27;;
20078;SDS011;10199;48.850;8.924;2022-09-30T03:13:51;10.53;;;8.80;;
20078;SDS011;10199;48.850;8.924;2022-09-30T03:16:32;10.13;;;8.17;;
20078;SDS011;10199;48.850;8.924;2022-09-30T03:19:21;10.07;;;8.27;;
20078;SDS011;10199;48.850;8.924;2022-09-30T03:22:04;8.10;;;6.73;;
20078;SDS011;10199;48.850;8.924;2022-09-30T03:24:58;9.03;;;7.30;;
20078;SDS011;10199;48.850;8.924;2022-09-30T03:27:44;10.40;;;7.43;;
20078;SDS011;10199;48.850;8.924;2022-09-30T03:30:20;11.33;;;7.37;;
20078;SDS011;10199;48.850;8.924;2022-09-30T03:32:56;10.37;;;7.53;;
20078;SDS011;10199;48.850;8.924;2022-09-30T03:35:36;10.00;;;7.90;;
20078;SDS011;10199;48.850;8.924;2022-09-30T03:38:16;9.77;;;7.53;;
20078;SDS011;10199;48.850;8.924;2022-09-30T03:40:56;10.57;;;8.27;;
20078;SDS011;10199;48.850;8.924;2022-09-30T03:43:29;11.97;;;7.80;;
20078;SDS011;10199;48.850;8.924;2022-09-30T03:46:02;12.57;;;8.23;;
20078;SDS011;10199;48.850;8.924;2022-09-30T03:48:39;10.00;;;8.07;;
20078;SDS011;10199;48.850;8.924;2022-09-30T03:51:09;13.77;;;9.00;;
20078;SDS011;10199;48.850;8.924;2022-09-30T03:53:38;9.93;;;7.63;;
20078;SDS011;10199;48.850;8.924;2022-09-30T03:56:07;10.80;;;7.63;;
20078;SDS011;10199;48.850;8.924;2022-09-30T03:58:35;10.70;;;7.63;;
20078;SDS011;10199;48.850;8.924;2022-09-30T04:01:08;10.50;;;8.43;;
20078;SDS011;10199;48.850;8.924;2022-09-30T04:03:44;12.70;;;9.23;;
20078;SDS011;10199;48.850;8.924;2022-09-30T04:06:13;12.50;;;8.50;;
20078;SDS011;10199;48.850;8.924;2022-09-30T04:08:41;12.73;;;9.00;;
20078;SDS011;10199;48.850;8.924;2022-09-30T04:11:09;10.50;;;8.27;;
20078;SDS011;10199;48.850;8.924;2022-09-30T04:13:37;13.57;;;9.50;;
20078;SDS011;10199;48.850;8.924;2022-09-30T04:16:05;14.17;;;9.27;;
20078;SDS011;10199;48.850;8.924;2022-09-30T04:18:34;14.03;;;9.73;;
20078;SDS011;10199;48.850;8.924;2022-09-30T04:21:04;14.17;;;8.90;;
20078;SDS011;10199;48.850;8.924;2022-09-30T04:23:34;12.63;;;9.53;;
20078;SDS011;10199;48.850;8.924;2022-09-30T04:26:02;13.53;;;9.80;;
20078;SDS011;10199;48.850;8.924;2022-09-30T04:28:31;14.63;;;9.67;;
20078;SDS011;10199;48.850;8.924;2022-09-30T04:30:59;14.07;;;9.87;;
20078;SDS011;10199;48.850;8.924;2022-09-30T04:33:27;16.20;;;11.73;;
20078;SDS011;10199;48.850;8.924;2022-09-30T04:35:55;21.33;;;13.47;;
20078;SDS011;10199;48.850;8.924;2022-09-30T04:38:25;24.10;;;15.70;;
20078;SDS011;10199;48.850;8.924;2022-09-30T04:40:54;28.90;;;16.60;;
20078;SDS011;10199;48.850;8.924;2022-09-30T04:43:23;26.60;;;16.97;;
20078;SDS011;10199;48.850;8.924;2022-09-30T04:45:51;29.93;;;18.10;;
20078;SDS011;10199;48.850;8.924;2022-09-30T04:48:19;25.27;;;15.87;;
20078;SDS011;10199;48.850;8.924;2022-09-30T04:50:48;26.23;;;15.80;;
20078;SDS011;10199;48.850;8.924;2022-09-30T04:53:17;20.73;;;13.70;;
20078;SDS011;10199;48.850;8.924;2022-09-30T04:55:45;18.23;;;12.03;;
20078;SDS011;10199;48.850;8.924;2022-09-30T04:58:14;23.13;;;13.67;;
20078;SDS011;10199;48.850;8.924;2022-09-30T05:00:42;21.67;;;13.40;;
20078;SDS011;10199;48.850;8.924;2022-09-30T05:03:10;20.70;;;14.03;;
20078;SDS011;10199;48.850;8.924;2022-09-30T05:05:37;26.20;;;16.13;;
20078;SDS011;10199;48.850;8.924;2022-09-30T05:08:06;19.57;;;14.43;;
20078;SDS011;10199;48.850;8.924;2022-09-30T05:10:34;25.40;;;16.80;;
20078;SDS011;10199;48.850;8.924;2022-09-30T05:13:02;23.30;;;16.37;;
20078;SDS011;10199;48.850;8.924;2022-09-30T05:15:31;20.80;;;15.10;;
20078;SDS011;10199;48.850;8.924;2022-09-30T05:18:01;22.03;;;15.50;;
20078;SDS011;10199;48.850;8.924;2022-09-30T05:20:29;20.90;;;14.97;;
20078;SDS011;10199;48.850;8.924;2022-09-30T05:22:57;20.53;;;15.03;;
20078;SDS011;10199;48.850;8.924;2022-09-30T05:25:25;20.83;;;14.60;;
20078;SDS011;10199;48.850;8.924;2022-09-30T05:27:53;20.47;;;14.73;;
20078;SDS011;10199;48.850;8.924;2022-09-30T05:30:21;21.33;;;14.27;;
20078;SDS011;10199;48.850;8.924;2022-09-30T05:32:50;22.30;;;14.87;;
20078;SDS011;10199;48.850;8.924;2022-09-30T05:35:18;19.83;;;13.63;;
20078;SDS011;10199;48.850;8.924;2022-09-30T05:37:45;18.83;;;12.33;;
20078;SDS011;10199;48.850;8.924;2022-09-30T05:40:14;16.83;;;12.67;;
20078;SDS011;10199;48.850;8.924;2022-09-30T05:42:41;18.30;;;12.03;;
20078;SDS011;10199;48.850;8.924;2022-09-30T05:45:10;14.10;;;11.10;;
20078;SDS011;10199;48.850;8.924;2022-09-30T05:47:38;15.47;;;10.90;;
20078;SDS011;10199;48.850;8.924;2022-09-30T05:50:07;11.87;;;10.23;;
20078;SDS011;10199;48.850;8.924;2022-09-30T05:52:35;16.67;;;11.73;;
20078;SDS011;10199;48.850;8.924;2022-09-30T05:55:03;15.30;;;10.43;;
20078;SDS011;10199;48.850;8.924;2022-09-30T05:57:31;13.20;;;10.43;;
20078;SDS011;10199;48.850;8.924;2022-09-30T05:59:59;17.73;;;10.77;;
20078;SDS011;10199;48.850;8.924;2022-09-30T06:02:36;14.77;;;11.20;;
20078;SDS011;10199;48.850;8.924;2022-09-30T06:05:05;16.60;;;11.70;;
20078;SDS011;10199;48.850;8.924;2022-09-30T06:07:34;16.20;;;11.90;;
20078;SDS011;10199;48.850;8.924;2022-09-30T06:10:04;15.00;;;13.40;;
20078;SDS011;10199;48.850;8.924;2022-09-30T06:12:34;21.33;;;13.40;;
20078;SDS011;10199;48.850;8.924;2022-09-30T06:15:02;18.50;;;14.33;;
20078;SDS011;10199;48.850;8.924;2022-09-30T06:17:30;19.80;;;13.83;;
20078;SDS011;10199;48.850;8.924;2022-09-30T06:19:58;15.80;;;11.30;;
20078;SDS011;10199;48.850;8.924;2022-09-30T06:22:26;15.50;;;11.43;;
20078;SDS011;10199;48.850;8.924;2022-09-30T06:24:55;15.07;;;11.47;;
20078;SDS011;10199;48.850;8.924;2022-09-30T06:27:23;16.70;;;12.60;;
20078;SDS011;10199;48.850;8.924;2022-09-30T06:29:51;12.70;;;11.40;;
20078;SDS011;10199;48.850;8.924;2022-09-30T06:32:19;14.10;;;12.60;;
20078;SDS011;10199;48.850;8.924;2022-09-30T06:34:47;16.40;;;13.27;;
20078;SDS011;10199;48.850;8.924;2022-09-30T06:37:14;14.50;;;13.00;;
20078;SDS011;10199;48.850;8.924;2022-09-30T06:39:43;15.23;;;13.30;;
20078;SDS011;10199;48.850;8.924;2022-09-30T06:42:12;16.40;;;13.53;;
20078;SDS011;10199;48.850;8.924;2022-09-30T06:44:40;12.57;;;11.07;;
20078;SDS011;10199;48.850;8.924;2022-09-30T06:47:15;11.00;;;9.53;;
20078;SDS011;10199;48.850;8.924;2022-09-30T06:49:49;14.50;;;10.87;;
20078;SDS011;10199;48.850;8.924;2022-09-30T06:52:18;15.03;;;12.47;;
20078;SDS011;10199;48.850;8.924;2022-09-30T06:54:47;14.33;;;11.30;;
20078;SDS011;10199;48.850;8.924;2022-09-30T06:57:17;13.23;;;11.87;;
20078;SDS011;10199;48.850;8.924;2022-09-30T06:59:48;19.07;;;16.40;;
20078;SDS011;10199;48.850;8.924;2022-09-30T07:02:16;21.87;;;18.63;;
20078;SDS011;10199;48.850;8.924;2022-09-30T07:04:44;22.33;;;19.13;;
20078;SDS011;10199;48.850;8.924;2022-09-30T07:07:13;20.40;;;17.63;;
20078;SDS011;10199;48.850;8.924;2022-09-30T07:09:41;21.23;;;18.00;;
20078;SDS011;10199;48.850;8.924;2022-09-30T07:12:09;20.10;;;16.67;;
20078;SDS011;10199;48.850;8.924;2022-09-30T07:14:38;18.47;;;12.13;;
20078;SDS011;10199;48.850;8.924;2022-09-30T07:17:06;16.33;;;13.40;;
20078;SDS011;10199;48.850;8.924;2022-09-30T07:19:34;15.33;;;13.13;;
20078;SDS011;10199;48.850;8.924;2022-09-30T07:22:02;20.33;;;17.17;;
20078;SDS011;10199;48.850;8.924;2022-09-30T07:24:44;16.13;;;12.43;;
20078;SDS011;10199;48.850;8.924;2022-09-30T07:27:11;18.33;;;12.43;;
20078;SDS011;10199;48.850;8.924;2022-09-30T07:29:40;20.23;;;12.10;;
20078;SDS011;10199;48.850;8.924;2022-09-30T07:32:29;15.57;;;12.53;;
20078;SDS011;10199;48.850;8.924;2022-09-30T07:34:57;16.67;;;12.70;;
20078;SDS011;10199;48.850;8.924;2022-09-30T07:37:24;17.90;;;12.53;;
20078;SDS011;10199;48.850;8.924;2022-09-30T07:39:52;14.47;;;12.27;;
20078;SDS011;10199;48.850;8.924;2022-09-30T07:42:20;16.20;;;13.20;;
20078;SDS011;10199;48.850;8.924;2022-09-30T07:44:49;15.40;;;12.17;;
20078;SDS011;10199;48.850;8.924;2022-09-30T07:47:18;15.93;;;11.73;;
20078;SDS011;10199;48.850;8.924;2022-09-30T07:49:46;15.43;;;12.97;;
20078;SDS011;10199;48.850;8.924;2022-09-30T07:52:14;14.57;;;13.07;;
20078;SDS011;10199;48.850;8.924;2022-09-30T07:54:42;16.23;;;12.70;;
20078;SDS011;10199;48.850;8.924;2022-09-30T07:57:13;14.97;;;12.17;;
20078;SDS011;10199;48.850;8.924;2022-09-30T07:59:41;17.27;;;12.23;;
20078;SDS011;10199;48.850;8.924;2022-09-30T08:02:11;14.87;;;11.43;;
20078;SDS011;10199;48.850;8.924;2022-09-30T08:04:41;15.47;;;12.17;;
20078;SDS011;10199;48.850;8.924;2022-09-30T08:07:10;14.87;;;12.43;;
20078;SDS011;10199;48.850;8.924;2022-09-30T08:09:39;15.83;;;12.23;;
20078;SDS011;10199;48.850;8.924;2022-09-30T08:12:07;14.83;;;11.83;;
20078;SDS011;10199;48.850;8.924;2022-09-30T08:14:35;13.20;;;11.33;;
20078;SDS011;10199;48.850;8.924;2022-09-30T08:17:02;15.23;;;11.53;;
20078;SDS011;10199;48.850;8.924;2022-09-30T08:19:31;13.47;;;10.83;;
20078;SDS011;10199;48.850;8.924;2022-09-30T08:22:00;15.43;;;11.17;;
20078;SDS011;10199;48.850;8.924;2022-09-30T08:24:33;13.83;;;10.43;;
20078;SDS011;10199;48.850;8.924;2022-09-30T08:27:01;14.37;;;9.73;;
20078;SDS011;10199;48.850;8.924;2022-09-30T08:29:29;12.80;;;10.00;;
20078;SDS011;10199;48.850;8.924;2022-09-30T08:32:16;13.73;;;9.23;;
20078;SDS011;10199;48.850;8.924;2022-09-30T08:34:45;11.60;;;9.47;;
20078;SDS011;10199;48.850;8.924;2022-09-30T08:37:13;12.10;;;8.53;;
20078;SDS011;10199;48.850;8.924;2022-09-30T08:39:41;11.80;;;9.33;;
20078;SDS011;10199;48.850;8.924;2022-09-30T08:42:19;12.60;;;10.00;;
20078;SDS011;10199;48.850;8.924;2022-09-30T08:45:03;10.97;;;9.87;;
20078;SDS011;10199;48.850;8.924;2022-09-30T08:47:45;12.70;;;9.53;;
20078;SDS011;10199;48.850;8.924;2022-09-30T08:50:24;12.33;;;9.70;;
20078;SDS011;10199;48.850;8.924;2022-09-30T08:52:57;14.93;;;9.93;;
20078;SDS011;10199;48.850;8.924;2022-09-30T08:55:28;10.00;;;8.57;;
20078;SDS011;10199;48.850;8.924;2022-09-30T08:58:05;9.20;;;7.93;;
20078;SDS011;10199;48.850;8.924;2022-09-30T09:00:42;13.37;;;9.30;;
20078;SDS011;10199;48.850;8.924;2022-09-30T09:03:10;9.63;;;7.37;;
20078;SDS011;10199;48.850;8.924;2022-09-30T09:05:44;10.37;;;8.37;;
20078;SDS011;10199;48.850;8.924;2022-09-30T09:08:20;10.17;;;7.60;;
20078;SDS011;10199;48.850;8.924;2022-09-30T09:10:55;9.93;;;8.03;;
20078;SDS011;10199;48.850;8.924;2022-09-30T09:13:33;11.77;;;8.40;;
20078;SDS011;10199;48.850;8.924;2022-09-30T09:16:11;11.50;;;7.43;;
20078;SDS011;10199;48.850;8.924;2022-09-30T09:21:43;11.07;;;8.17;;
20078;SDS011;10199;48.850;8.924;2022-09-30T09:24:18;9.10;;;7.60;;
20078;SDS011;10199;48.850;8.924;2022-09-30T09:26:48;11.50;;;7.57;;
20078;SDS011;10199;48.850;8.924;2022-09-30T09:29:21;8.70;;;7.17;;
20078;SDS011;10199;48.850;8.924;2022-09-30T09:32:00;8.20;;;7.10;;
20078;SDS011;10199;48.850;8.924;2022-09-30T09:34:29;8.10;;;6.40;;
20078;SDS011;10199;48.850;8.924;2022-09-30T09:37:03;7.17;;;5.73;;
20078;SDS011;10199;48.850;8.924;2022-09-30T09:39:44;7.13;;;6.43;;
20078;SDS011;10199;48.850;8.924;2022-09-30T09:42:30;7.47;;;5.80;;
20078;SDS011;10199;48.850;8.924;2022-09-30T09:45:08;6.30;;;4.30;;
20078;SDS011;10199;48.850;8.924;2022-09-30T09:47:39;5.63;;;4.57;;
20078;SDS011;10199;48.850;8.924;2022-09-30T09:50:12;6.83;;;4.90;;
20078;SDS011;10199;48.850;8.924;2022-09-30T09:55:49;4.93;;;4.17;;
20078;SDS011;10199;48.850;8.924;2022-09-30T09:58:22;4.40;;;4.00;;
20078;SDS011;10199;48.850;8.924;2022-09-30T10:00:50;4.60;;;3.77;;
20078;SDS011;10199;48.850;8.924;2022-09-30T10:03:36;6.27;;;4.20;;
20078;SDS011;10199;48.850;8.924;2022-09-30T10:06:05;7.67;;;4.73;;
20078;SDS011;10199;48.850;8.924;2022-09-30T10:08:35;8.13;;;4.90;;
20078;SDS011;10199;48.850;8.924;2022-09-30T10:11:07;7.33;;;5.47;;
20078;SDS011;10199;48.850;8.924;2022-09-30T10:13:46;6.80;;;6.00;;
20078;SDS011;10199;48.850;8.924;2022-09-30T10:16:24;8.43;;;5.77;;
20078;SDS011;10199;48.850;8.924;2022-09-30T10:18:55;6.70;;;5.10;;
20078;SDS011;10199;48.850;8.924;2022-09-30T10:21:23;11.80;;;6.00;;
20078;SDS011;10199;48.850;8.924;2022-09-30T10:23:53;6.50;;;4.80;;
20078;SDS011;10199;48.850;8.924;2022-09-30T10:26:24;5.93;;;4.20;;
20078;SDS011;10199;48.850;8.924;2022-09-30T10:28:54;4.73;;;3.67;;
20078;SDS011;10199;48.850;8.924;2022-09-30T10:31:23;6.80;;;4.00;;
20078;SDS011;10199;48.850;8.924;2022-09-30T10:33:55;7.67;;;4.00;;
20078;SDS011;10199;48.850;8.924;2022-09-30T10:36:28;5.80;;;3.37;;
20078;SDS011;10199;48.850;8.924;2022-09-30T10:38:59;3.53;;;3.13;;
20078;SDS011;10199;48.850;8.924;2022-09-30T10:41:31;4.90;;;3.07;;
20078;SDS011;10199;48.850;8.924;2022-09-30T10:44:01;6.87;;;3.93;;
20078;SDS011;10199;48.850;8.924;2022-09-30T10:46:32;5.00;;;3.30;;
20078;SDS011;10199;48.850;8.924;2022-09-30T10:49:06;6.37;;;3.67;;
20078;SDS011;10199;48.850;8.924;2022-09-30T10:51:37;6.30;;;4.33;;
20078;SDS011;10199;48.850;8.924;2022-09-30T10:54:06;4.50;;;3.20;;
20078;SDS011;10199;48.850;8.924;2022-09-30T10:56:55;6.73;;;3.87;;
20078;SDS011;10199;48.850;8.924;2022-09-30T10:59:30;5.67;;;3.70;;
20078;SDS011;10199;48.850;8.924;2022-09-30T11:02:12;6.13;;;3.60;;
20078;SDS011;10199;48.850;8.924;2022-09-30T11:04:55;5.63;;;3.60;;
20078;SDS011;10199;48.850;8.924;2022-09-30T11:07:30;4.10;;;3.70;;
20078;SDS011;10199;48.850;8.924;2022-09-30T11:10:04;4.33;;;3.43;;
20078;SDS011;10199;48.850;8.924;2022-09-30T11:12:39;10.70;;;4.23;;
20078;SDS011;10199;48.850;8.924;2022-09-30T11:15:12;6.97;;;3.30;;
20078;SDS011;10199;48.850;8.924;2022-09-30T11:17:47;4.20;;;2.90;;
20078;SDS011;10199;48.850;8.924;2022-09-30T11:20:20;3.80;;;2.80;;
20078;SDS011;10199;48.850;8.924;2022-09-30T11:22:52;4.40;;;2.70;;
20078;SDS011;10199;48.850;8.924;2022-09-30T11:25:27;3.27;;;2.50;;
20078;SDS011;10199;48.850;8.924;2022-09-30T11:28:10;3.87;;;3.03;;
20078;SDS011;10199;48.850;8.924;2022-09-30T11:30:51;3.03;;;2.57;;
20078;SDS011;10199;48.850;8.924;2022-09-30T11:33:34;5.90;;;3.50;;
20078;SDS011;10199;48.850;8.924;2022-09-30T11:36:11;4.23;;;3.37;;
20078;SDS011;10199;48.850;8.924;2022-09-30T11:38:55;12.53;;;3.97;;
20078;SDS011;10199;48.850;8.924;2022-09-30T11:41:32;9.03;;;2.90;;
20078;SDS011;10199;48.850;8.924;2022-09-30T11:44:10;4.03;;;3.20;;
20078;SDS011;10199;48.850;8.924;2022-09-30T11:46:50;2.80;;;2.50;;
20078;SDS011;10199;48.850;8.924;2022-09-30T11:49:29;3.00;;;2.50;;
20078;SDS011;10199;48.850;8.924;2022-09-30T11:52:08;3.63;;;2.40;;
20078;SDS011;10199;48.850;8.924;2022-09-30T11:54:47;3.60;;;2.47;;
20078;SDS011;10199;48.850;8.924;2022-09-30T11:57:28;3.77;;;2.20;;
20078;SDS011;10199;48.850;8.924;2022-09-30T12:00:05;2.63;;;2.20;;
20078;SDS011;10199;48.850;8.924;2022-09-30T12:02:41;3.00;;;2.40;;
20078;SDS011;10199;48.850;8.924;2022-09-30T12:05:14;4.20;;;3.60;;
20078;SDS011;10199;48.850;8.924;2022-09-30T12:07:46;4.50;;;3.17;;
20078;SDS011;10199;48.850;8.924;2022-09-30T12:10:18;6.17;;;4.43;;
20078;SDS011;10199;48.850;8.924;2022-09-30T12:12:50;5.93;;;5.07;;
20078;SDS011;10199;48.850;8.924;2022-09-30T12:15:23;3.27;;;2.60;;
20078;SDS011;10199;48.850;8.924;2022-09-30T12:17:54;5.17;;;3.47;;
20078;SDS011;10199;48.850;8.924;2022-09-30T12:20:26;3.30;;;2.83;;
20078;SDS011;10199;48.850;8.924;2022-09-30T12:22:59;3.83;;;3.17;;
20078;SDS011;10199;48.850;8.924;2022-09-30T12:25:37;5.03;;;3.03;;
20078;SDS011;10199;48.850;8.924;2022-09-30T12:28:11;7.07;;;3.23;;
20078;SDS011;10199;48.850;8.924;2022-09-30T12:31:11;4.23;;;3.53;;
20078;SDS011;10199;48.850;8.924;2022-09-30T12:33:59;5.30;;;3.40;;
20078;SDS011;10199;48.850;8.924;2022-09-30T12:36:44;4.77;;;3.60;;
20078;SDS011;10199;48.850;8.924;2022-09-30T12:42:21;9.67;;;8.53;;
20078;SDS011;10199;48.850;8.924;2022-09-30T12:45:08;4.00;;;3.60;;
20078;SDS011;10199;48.850;8.924;2022-09-30T12:47:52;4.50;;;3.97;;
20078;SDS011;10199;48.850;8.924;2022-09-30T12:50:24;4.67;;;3.73;;
20078;SDS011;10199;48.850;8.924;2022-09-30T12:52:55;5.13;;;3.80;;
20078;SDS011;10199;48.850;8.924;2022-09-30T12:55:26;4.23;;;3.43;;
20078;SDS011;10199;48.850;8.924;2022-09-30T12:57:56;4.20;;;3.80;;
20078;SDS011;10199;48.850;8.924;2022-09-30T13:00:27;7.70;;;4.30;;
20078;SDS011;10199;48.850;8.924;2022-09-30T13:03:01;3.50;;;2.93;;
20078;SDS011;10199;48.850;8.924;2022-09-30T13:11:33;4.23;;;2.87;;
20078;SDS011;10199;48.850;8.924;2022-09-30T13:14:16;4.43;;;3.10;;
20078;SDS011;10199;48.850;8.924;2022-09-30T13:17:02;4.67;;;3.53;;
20078;SDS011;10199;48.850;8.924;2022-09-30T13:19:50;3.97;;;2.80;;
20078;SDS011;10199;48.850;8.924;2022-09-30T13:25:23;6.17;;;3.30;;
20078;SDS011;10199;48.850;8.924;2022-09-30T13:27:52;4.37;;;3.77;;
20078;SDS011;10199;48.850;8.924;2022-09-30T13:33:40;3.97;;;3.17;;
20078;SDS011;10199;48.850;8.924;2022-09-30T13:36:25;4.10;;;2.93;;
20078;SDS011;10199;48.850;8.924;2022-09-30T13:41:55;3.87;;;2.70;;
20078;SDS011;10199;48.850;8.924;2022-09-30T13:44:33;5.60;;;3.03;;
20078;SDS011;10199;48.850;8.924;2022-09-30T13:47:09;3.73;;;2.83;;
20078;SDS011;10199;48.850;8.924;2022-09-30T13:49:45;4.87;;;2.97;;
20078;SDS011;10199;48.850;8.924;2022-09-30T13:52:21;3.23;;;2.87;;
20078;SDS011;10199;48.850;8.924;2022-09-30T13:54:53;3.90;;;2.80;;
20078;SDS011;10199;48.850;8.924;2022-09-30T13:57:26;2.73;;;2.53;;
20078;SDS011;10199;48.850;8.924;2022-09-30T14:00:03;3.70;;;2.63;;
20078;SDS011;10199;48.850;8.924;2022-09-30T14:05:48;4.03;;;2.80;;
20078;SDS011;10199;48.850;8.924;2022-09-30T14:08:31;5.37;;;3.07;;
20078;SDS011;10199;48.850;8.924;2022-09-30T14:11:26;5.23;;;2.93;;
20078;SDS011;10199;48.850;8.924;2022-09-30T14:14:09;3.07;;;2.77;;
20078;SDS011;10199;48.850;8.924;2022-09-30T14:16:56;5.70;;;3.30;;
20078;SDS011;10199;48.850;8.924;2022-09-30T14:19:46;3.40;;;2.57;;
20078;SDS011;10199;48.850;8.924;2022-09-30T14:22:23;3.33;;;2.73;;
20078;SDS011;10199;48.850;8.924;2022-09-30T14:24:56;6.93;;;2.80;;
20078;SDS011;10199;48.850;8.924;2022-09-30T14:30:25;2.93;;;2.60;;
20078;SDS011;10199;48.850;8.924;2022-09-30T14:32:54;5.10;;;4.10;;
20078;SDS011;10199;48.850;8.924;2022-09-30T14:35:26;6.40;;;3.30;;
20078;SDS011;10199;48.850;8.924;2022-09-30T14:37:56;4.40;;;3.37;;
20078;SDS011;10199;48.850;8.924;2022-09-30T14:40:29;3.53;;;2.30;;
20078;SDS011;10199;48.850;8.924;2022-09-30T14:42:59;4.20;;;2.60;;
20078;SDS011;10199;48.850;8.924;2022-09-30T14:45:33;5.63;;;2.80;;
20078;SDS011;10199;48.850;8.924;2022-09-30T14:48:04;5.00;;;2.43;;
20078;SDS011;10199;48.850;8.924;2022-09-30T14:50:35;2.83;;;2.43;;
20078;SDS011;10199;48.850;8.924;2022-09-30T14:53:21;3.00;;;2.20;;
20078;SDS011;10199;48.850;8.924;2022-09-30T14:55:52;3.43;;;2.03;;
20078;SDS011;10199;48.850;8.924;2022-09-30T14:58:22;3.57;;;2.63;;
20078;SDS011;10199;48.850;8.924;2022-09-30T15:00:57;2.40;;;2.20;;
20078;SDS011;10199;48.850;8.924;2022-09-30T15:03:29;4.40;;;2.57;;
20078;SDS011;10199;48.850;8.924;2022-09-30T15:05:58;4.80;;;2.37;;
20078;SDS011;10199;48.850;8.924;2022-09-30T15:08:27;4.33;;;2.30;;
20078;SDS011;10199;48.850;8.924;2022-09-30T15:10:56;3.87;;;1.93;;
20078;SDS011;10199;48.850;8.924;2022-09-30T15:13:25;3.73;;;2.20;;
20078;SDS011;10199;48.850;8.924;2022-09-30T15:15:57;4.87;;;2.37;;
20078;SDS011;10199;48.850;8.924;2022-09-30T15:18:26;3.00;;;2.40;;
20078;SDS011;10199;48.850;8.924;2022-09-30T15:21:00;4.33;;;3.20;;
20078;SDS011;10199;48.850;8.924;2022-09-30T15:23:35;3.90;;;3.17;;
20078;SDS011;10199;48.850;8.924;2022-09-30T15:26:08;4.90;;;2.63;;
20078;SDS011;10199;48.850;8.924;2022-09-30T15:28:38;3.53;;;2.30;;
20078;SDS011;10199;48.850;8.924;2022-09-30T15:31:06;4.43;;;2.30;;
20078;SDS011;10199;48.850;8.924;2022-09-30T15:36:41;3.00;;;2.40;;
20078;SDS011;10199;48.850;8.924;2022-09-30T15:39:17;2.70;;;2.50;;
20078;SDS011;10199;48.850;8.924;2022-09-30T15:41:51;3.77;;;2.23;;
20078;SDS011;10199;48.850;8.924;2022-09-30T15:44:27;3.80;;;2.10;;
20078;SDS011;10199;48.850;8.924;2022-09-30T15:47:04;2.90;;;2.30;;